sensor_id;sensor_type;location;lat;lon;timestamp;P1;durP1;ratioP1;P2;durP2;ratioP2
14766;SDS011;7475;53.558;9.970;2022-09-09T00:02:19;38.37;;;28.67;;
14766;SDS011;7475;53.558;9.970;2022-09-09T00:04:52;34.50;;;26.98;;
14766;SDS011;7475;53.558;9.970;2022-09-09T00:07:25;35.22;;;28.25;;
14766;SDS011;7475;53.558;9.970;2022-09-09T00:10:09;36.08;;;28.55;;
14766;SDS011;7475;53.558;9.970;2022-09-09T00:15:12;43.05;;;32.63;;
14766;SDS011;7475;53.558;9.970;2022-09-09T00:17:39;45.67;;;35.85;;
14766;SDS011;7475;53.558;9.970;2022-09-09T00:20:11;38.00;;;31.05;;
14766;SDS011;7475;53.558;9.970;2022-09-09T00:22:37;44.70;;;30.80;;
14766;SDS011;7475;53.558;9.970;2022-09-09T00:25:14;46.22;;;32.53;;
14766;SDS011;7475;53.558;9.970;2022-09-09T00:32:58;50.65;;;35.42;;
14766;SDS011;7475;53.558;9.970;2022-09-09T00:35:25;47.25;;;33.75;;
14766;SDS011;7475;53.558;9.970;2022-09-09T00:37:53;49.75;;;34.67;;
14766;SDS011;7475;53.558;9.970;2022-09-09T00:40:34;49.33;;;35.55;;
14766;SDS011;7475;53.558;9.970;2022-09-09T00:43:13;57.33;;;37.65;;
14766;SDS011;7475;53.558;9.970;2022-09-09T00:46:04;52.28;;;34.13;;
14766;SDS011;7475;53.558;9.970;2022-09-09T00:48:37;46.55;;;32.85;;
14766;SDS011;7475;53.558;9.970;2022-09-09T00:51:12;51.45;;;33.80;;
14766;SDS011;7475;53.558;9.970;2022-09-09T00:54:17;52.50;;;41.17;;
14766;SDS011;7475;53.558;9.970;2022-09-09T00:56:39;46.60;;;33.63;;
14766;SDS011;7475;53.558;9.970;2022-09-09T01:01:35;43.40;;;31.00;;
14766;SDS011;7475;53.558;9.970;2022-09-09T01:04:00;35.58;;;29.30;;
14766;SDS011;7475;53.558;9.970;2022-09-09T01:06:30;39.53;;;28.80;;
14766;SDS011;7475;53.558;9.970;2022-09-09T01:09:13;37.83;;;28.98;;
14766;SDS011;7475;53.558;9.970;2022-09-09T01:17:11;39.25;;;27.70;;
14766;SDS011;7475;53.558;9.970;2022-09-09T01:19:40;34.10;;;26.48;;
14766;SDS011;7475;53.558;9.970;2022-09-09T01:27:51;38.00;;;27.48;;
14766;SDS011;7475;53.558;9.970;2022-09-09T01:30:17;39.17;;;27.30;;
14766;SDS011;7475;53.558;9.970;2022-09-09T01:32:44;40.42;;;26.52;;
14766;SDS011;7475;53.558;9.970;2022-09-09T01:35:12;36.10;;;26.40;;
14766;SDS011;7475;53.558;9.970;2022-09-09T01:37:39;39.65;;;25.98;;
14766;SDS011;7475;53.558;9.970;2022-09-09T01:40:05;39.00;;;26.45;;
14766;SDS011;7475;53.558;9.970;2022-09-09T01:42:30;35.20;;;24.52;;
14766;SDS011;7475;53.558;9.970;2022-09-09T01:44:55;47.10;;;27.38;;
14766;SDS011;7475;53.558;9.970;2022-09-09T01:47:20;37.95;;;25.33;;
14766;SDS011;7475;53.558;9.970;2022-09-09T01:49:46;34.25;;;24.83;;
14766;SDS011;7475;53.558;9.970;2022-09-09T01:52:11;35.63;;;24.92;;
14766;SDS011;7475;53.558;9.970;2022-09-09T01:54:36;37.53;;;25.67;;
14766;SDS011;7475;53.558;9.970;2022-09-09T02:02:11;36.25;;;26.25;;
14766;SDS011;7475;53.558;9.970;2022-09-09T02:04:59;40.40;;;27.23;;
14766;SDS011;7475;53.558;9.970;2022-09-09T02:07:40;37.85;;;25.98;;
14766;SDS011;7475;53.558;9.970;2022-09-09T02:12:30;37.47;;;26.48;;
14766;SDS011;7475;53.558;9.970;2022-09-09T02:14:59;35.00;;;25.67;;
14766;SDS011;7475;53.558;9.970;2022-09-09T02:17:27;36.47;;;25.23;;
14766;SDS011;7475;53.558;9.970;2022-09-09T02:19:59;34.50;;;24.63;;
14766;SDS011;7475;53.558;9.970;2022-09-09T02:22:27;35.70;;;25.38;;
14766;SDS011;7475;53.558;9.970;2022-09-09T02:24:53;34.85;;;24.30;;
14766;SDS011;7475;53.558;9.970;2022-09-09T02:27:21;32.03;;;24.40;;
14766;SDS011;7475;53.558;9.970;2022-09-09T02:29:47;35.80;;;25.02;;
14766;SDS011;7475;53.558;9.970;2022-09-09T02:32:15;29.95;;;22.88;;
14766;SDS011;7475;53.558;9.970;2022-09-09T02:34:46;31.80;;;23.55;;
14766;SDS011;7475;53.558;9.970;2022-09-09T02:37:12;31.58;;;23.60;;
14766;SDS011;7475;53.558;9.970;2022-09-09T02:39:40;31.30;;;23.17;;
14766;SDS011;7475;53.558;9.970;2022-09-09T02:42:05;28.50;;;22.47;;
14766;SDS011;7475;53.558;9.970;2022-09-09T02:44:30;31.95;;;23.48;;
14766;SDS011;7475;53.558;9.970;2022-09-09T02:49:27;29.70;;;23.02;;
14766;SDS011;7475;53.558;9.970;2022-09-09T02:51:57;32.08;;;23.42;;
14766;SDS011;7475;53.558;9.970;2022-09-09T02:54:30;30.13;;;22.70;;
14766;SDS011;7475;53.558;9.970;2022-09-09T02:56:56;28.83;;;22.20;;
14766;SDS011;7475;53.558;9.970;2022-09-09T02:59:24;34.80;;;22.30;;
14766;SDS011;7475;53.558;9.970;2022-09-09T03:01:50;28.10;;;21.30;;
14766;SDS011;7475;53.558;9.970;2022-09-09T03:04:15;26.95;;;22.55;;
14766;SDS011;7475;53.558;9.970;2022-09-09T03:06:40;27.45;;;23.25;;
14766;SDS011;7475;53.558;9.970;2022-09-09T03:09:05;28.70;;;22.27;;
14766;SDS011;7475;53.558;9.970;2022-09-09T03:11:31;25.23;;;21.13;;
14766;SDS011;7475;53.558;9.970;2022-09-09T03:13:56;28.00;;;21.67;;
14766;SDS011;7475;53.558;9.970;2022-09-09T03:16:24;24.63;;;20.40;;
14766;SDS011;7475;53.558;9.970;2022-09-09T03:18:49;24.50;;;20.45;;
14766;SDS011;7475;53.558;9.970;2022-09-09T03:21:15;24.83;;;19.95;;
14766;SDS011;7475;53.558;9.970;2022-09-09T03:23:40;24.02;;;18.92;;
14766;SDS011;7475;53.558;9.970;2022-09-09T03:26:06;23.45;;;20.20;;
14766;SDS011;7475;53.558;9.970;2022-09-09T03:28:31;24.35;;;20.10;;
14766;SDS011;7475;53.558;9.970;2022-09-09T03:31:00;27.40;;;20.80;;
14766;SDS011;7475;53.558;9.970;2022-09-09T03:33:25;22.13;;;19.73;;
14766;SDS011;7475;53.558;9.970;2022-09-09T03:35:51;27.35;;;20.80;;
14766;SDS011;7475;53.558;9.970;2022-09-09T03:38:16;26.83;;;20.30;;
14766;SDS011;7475;53.558;9.970;2022-09-09T03:40:48;27.08;;;21.10;;
14766;SDS011;7475;53.558;9.970;2022-09-09T03:43:14;25.92;;;20.02;;
14766;SDS011;7475;53.558;9.970;2022-09-09T03:45:44;25.27;;;19.23;;
14766;SDS011;7475;53.558;9.970;2022-09-09T03:48:11;25.58;;;20.13;;
14766;SDS011;7475;53.558;9.970;2022-09-09T03:50:36;24.88;;;20.15;;
14766;SDS011;7475;53.558;9.970;2022-09-09T03:53:02;24.95;;;20.10;;
14766;SDS011;7475;53.558;9.970;2022-09-09T03:55:27;25.10;;;19.73;;
14766;SDS011;7475;53.558;9.970;2022-09-09T03:57:52;21.70;;;18.90;;
14766;SDS011;7475;53.558;9.970;2022-09-09T04:00:17;26.23;;;20.05;;
14766;SDS011;7475;53.558;9.970;2022-09-09T04:02:42;24.50;;;20.02;;
14766;SDS011;7475;53.558;9.970;2022-09-09T04:05:08;25.40;;;19.10;;
14766;SDS011;7475;53.558;9.970;2022-09-09T04:07:34;23.40;;;19.33;;
14766;SDS011;7475;53.558;9.970;2022-09-09T04:09:59;27.15;;;18.48;;
14766;SDS011;7475;53.558;9.970;2022-09-09T04:12:24;23.63;;;18.60;;
14766;SDS011;7475;53.558;9.970;2022-09-09T04:14:50;22.00;;;17.90;;
14766;SDS011;7475;53.558;9.970;2022-09-09T04:17:15;22.98;;;17.80;;
14766;SDS011;7475;53.558;9.970;2022-09-09T04:19:40;21.15;;;17.88;;
14766;SDS011;7475;53.558;9.970;2022-09-09T04:22:07;26.60;;;19.33;;
14766;SDS011;7475;53.558;9.970;2022-09-09T04:24:32;21.70;;;18.13;;
14766;SDS011;7475;53.558;9.970;2022-09-09T04:26:57;22.95;;;17.75;;
14766;SDS011;7475;53.558;9.970;2022-09-09T04:29:23;23.05;;;18.88;;
14766;SDS011;7475;53.558;9.970;2022-09-09T04:31:48;19.42;;;16.75;;
14766;SDS011;7475;53.558;9.970;2022-09-09T04:34:13;21.25;;;17.50;;
14766;SDS011;7475;53.558;9.970;2022-09-09T04:36:38;18.67;;;16.52;;
14766;SDS011;7475;53.558;9.970;2022-09-09T04:39:05;19.27;;;16.40;;
14766;SDS011;7475;53.558;9.970;2022-09-09T04:41:30;19.38;;;15.85;;
14766;SDS011;7475;53.558;9.970;2022-09-09T04:43:56;17.45;;;14.73;;
14766;SDS011;7475;53.558;9.970;2022-09-09T04:46:21;16.63;;;14.85;;
14766;SDS011;7475;53.558;9.970;2022-09-09T04:48:48;17.65;;;14.90;;
14766;SDS011;7475;53.558;9.970;2022-09-09T04:51:14;16.15;;;14.43;;
14766;SDS011;7475;53.558;9.970;2022-09-09T04:53:40;15.05;;;13.60;;
14766;SDS011;7475;53.558;9.970;2022-09-09T04:56:06;14.60;;;13.13;;
14766;SDS011;7475;53.558;9.970;2022-09-09T04:58:31;15.10;;;12.52;;
14766;SDS011;7475;53.558;9.970;2022-09-09T05:01:04;14.10;;;12.60;;
14766;SDS011;7475;53.558;9.970;2022-09-09T05:03:29;13.35;;;12.00;;
14766;SDS011;7475;53.558;9.970;2022-09-09T05:05:54;14.03;;;12.70;;
14766;SDS011;7475;53.558;9.970;2022-09-09T05:08:21;14.00;;;12.57;;
14766;SDS011;7475;53.558;9.970;2022-09-09T05:10:47;14.55;;;11.90;;
14766;SDS011;7475;53.558;9.970;2022-09-09T05:13:13;13.88;;;12.43;;
14766;SDS011;7475;53.558;9.970;2022-09-09T05:15:38;13.00;;;11.70;;
14766;SDS011;7475;53.558;9.970;2022-09-09T05:18:03;12.23;;;11.07;;
14766;SDS011;7475;53.558;9.970;2022-09-09T05:20:29;12.98;;;10.65;;
14766;SDS011;7475;53.558;9.970;2022-09-09T05:22:54;12.70;;;11.48;;
14766;SDS011;7475;53.558;9.970;2022-09-09T05:25:20;12.07;;;10.95;;
14766;SDS011;7475;53.558;9.970;2022-09-09T05:27:45;12.40;;;10.40;;
14766;SDS011;7475;53.558;9.970;2022-09-09T05:30:10;13.18;;;11.20;;
14766;SDS011;7475;53.558;9.970;2022-09-09T05:32:35;11.60;;;10.40;;
14766;SDS011;7475;53.558;9.970;2022-09-09T05:35:01;12.40;;;11.10;;
14766;SDS011;7475;53.558;9.970;2022-09-09T05:37:27;11.63;;;10.43;;
14766;SDS011;7475;53.558;9.970;2022-09-09T05:39:52;13.48;;;10.77;;
14766;SDS011;7475;53.558;9.970;2022-09-09T05:42:18;11.02;;;9.88;;
14766;SDS011;7475;53.558;9.970;2022-09-09T05:44:43;11.95;;;10.30;;
14766;SDS011;7475;53.558;9.970;2022-09-09T05:47:09;11.68;;;10.48;;
14766;SDS011;7475;53.558;9.970;2022-09-09T05:49:34;12.00;;;10.10;;
14766;SDS011;7475;53.558;9.970;2022-09-09T05:51:59;11.07;;;9.90;;
14766;SDS011;7475;53.558;9.970;2022-09-09T05:54:25;14.02;;;9.80;;
14766;SDS011;7475;53.558;9.970;2022-09-09T05:56:50;10.10;;;9.10;;
14766;SDS011;7475;53.558;9.970;2022-09-09T05:59:16;11.82;;;9.75;;
14766;SDS011;7475;53.558;9.970;2022-09-09T06:01:41;10.25;;;9.27;;
14766;SDS011;7475;53.558;9.970;2022-09-09T06:07:09;11.43;;;10.13;;
14766;SDS011;7475;53.558;9.970;2022-09-09T06:09:34;10.05;;;9.05;;
14766;SDS011;7475;53.558;9.970;2022-09-09T06:12:00;9.95;;;9.05;;
14766;SDS011;7475;53.558;9.970;2022-09-09T06:14:25;10.82;;;9.43;;
14766;SDS011;7475;53.558;9.970;2022-09-09T06:16:51;9.95;;;9.02;;
14766;SDS011;7475;53.558;9.970;2022-09-09T06:19:17;10.20;;;9.10;;
14766;SDS011;7475;53.558;9.970;2022-09-09T06:21:42;11.93;;;8.85;;
14766;SDS011;7475;53.558;9.970;2022-09-09T06:24:09;10.60;;;8.35;;
14766;SDS011;7475;53.558;9.970;2022-09-09T06:26:35;9.80;;;7.75;;
14766;SDS011;7475;53.558;9.970;2022-09-09T06:29:03;8.95;;;8.05;;
14766;SDS011;7475;53.558;9.970;2022-09-09T06:31:29;10.20;;;8.95;;
14766;SDS011;7475;53.558;9.970;2022-09-09T06:33:55;11.15;;;8.15;;
14766;SDS011;7475;53.558;9.970;2022-09-09T06:36:22;12.43;;;9.50;;
14766;SDS011;7475;53.558;9.970;2022-09-09T06:38:48;13.85;;;8.15;;
14766;SDS011;7475;53.558;9.970;2022-09-09T06:41:13;10.27;;;8.23;;
14766;SDS011;7475;53.558;9.970;2022-09-09T06:43:39;10.15;;;8.05;;
14766;SDS011;7475;53.558;9.970;2022-09-09T06:48:39;9.50;;;8.63;;
14766;SDS011;7475;53.558;9.970;2022-09-09T06:51:11;12.95;;;9.30;;
14766;SDS011;7475;53.558;9.970;2022-09-09T06:53:37;8.98;;;8.15;;
14766;SDS011;7475;53.558;9.970;2022-09-09T06:56:16;13.23;;;8.50;;
14766;SDS011;7475;53.558;9.970;2022-09-09T06:58:42;9.05;;;7.53;;
14766;SDS011;7475;53.558;9.970;2022-09-09T07:01:09;12.45;;;7.97;;
14766;SDS011;7475;53.558;9.970;2022-09-09T07:03:34;9.10;;;6.85;;
14766;SDS011;7475;53.558;9.970;2022-09-09T07:06:00;10.80;;;5.93;;
14766;SDS011;7475;53.558;9.970;2022-09-09T07:08:26;6.90;;;5.45;;
14766;SDS011;7475;53.558;9.970;2022-09-09T07:10:51;6.65;;;4.45;;
14766;SDS011;7475;53.558;9.970;2022-09-09T07:13:19;7.65;;;5.35;;
14766;SDS011;7475;53.558;9.970;2022-09-09T07:15:46;7.63;;;5.93;;
14766;SDS011;7475;53.558;9.970;2022-09-09T07:18:11;6.00;;;5.00;;
14766;SDS011;7475;53.558;9.970;2022-09-09T07:20:36;7.10;;;5.13;;
14766;SDS011;7475;53.558;9.970;2022-09-09T07:23:01;5.80;;;5.20;;
14766;SDS011;7475;53.558;9.970;2022-09-09T07:25:27;10.10;;;6.50;;
14766;SDS011;7475;53.558;9.970;2022-09-09T07:27:53;7.72;;;5.28;;
14766;SDS011;7475;53.558;9.970;2022-09-09T07:30:19;7.43;;;5.13;;
14766;SDS011;7475;53.558;9.970;2022-09-09T07:32:44;5.82;;;5.10;;
14766;SDS011;7475;53.558;9.970;2022-09-09T07:35:10;5.50;;;5.00;;
14766;SDS011;7475;53.558;9.970;2022-09-09T07:37:36;4.93;;;4.18;;
14766;SDS011;7475;53.558;9.970;2022-09-09T07:40:01;6.18;;;4.60;;
14766;SDS011;7475;53.558;9.970;2022-09-09T07:42:26;5.57;;;3.67;;
14766;SDS011;7475;53.558;9.970;2022-09-09T07:44:52;4.17;;;3.77;;
14766;SDS011;7475;53.558;9.970;2022-09-09T07:47:19;6.63;;;3.80;;
14766;SDS011;7475;53.558;9.970;2022-09-09T07:49:45;5.22;;;3.55;;
14766;SDS011;7475;53.558;9.970;2022-09-09T07:52:11;4.90;;;3.45;;
14766;SDS011;7475;53.558;9.970;2022-09-09T07:54:36;7.53;;;4.20;;
14766;SDS011;7475;53.558;9.970;2022-09-09T07:57:02;6.67;;;4.13;;
14766;SDS011;7475;53.558;9.970;2022-09-09T07:59:28;8.50;;;5.68;;
14766;SDS011;7475;53.558;9.970;2022-09-09T08:01:54;9.75;;;5.60;;
14766;SDS011;7475;53.558;9.970;2022-09-09T08:04:20;5.97;;;4.07;;
14766;SDS011;7475;53.558;9.970;2022-09-09T08:06:50;6.13;;;4.72;;
14766;SDS011;7475;53.558;9.970;2022-09-09T08:09:17;7.40;;;4.43;;
14766;SDS011;7475;53.558;9.970;2022-09-09T08:11:43;5.22;;;4.18;;
14766;SDS011;7475;53.558;9.970;2022-09-09T08:14:08;7.90;;;4.43;;
14766;SDS011;7475;53.558;9.970;2022-09-09T08:16:35;6.43;;;4.28;;
14766;SDS011;7475;53.558;9.970;2022-09-09T08:19:01;8.55;;;3.45;;
14766;SDS011;7475;53.558;9.970;2022-09-09T08:21:28;6.75;;;3.80;;
14766;SDS011;7475;53.558;9.970;2022-09-09T08:23:53;4.53;;;3.28;;
14766;SDS011;7475;53.558;9.970;2022-09-09T08:26:20;3.83;;;2.97;;
14766;SDS011;7475;53.558;9.970;2022-09-09T08:28:53;4.57;;;2.80;;
14766;SDS011;7475;53.558;9.970;2022-09-09T08:31:20;5.25;;;3.53;;
14766;SDS011;7475;53.558;9.970;2022-09-09T08:33:46;4.18;;;3.50;;
14766;SDS011;7475;53.558;9.970;2022-09-09T08:36:12;5.90;;;3.13;;
14766;SDS011;7475;53.558;9.970;2022-09-09T08:38:40;4.88;;;2.30;;
14766;SDS011;7475;53.558;9.970;2022-09-09T08:43:39;3.25;;;2.30;;
14766;SDS011;7475;53.558;9.970;2022-09-09T08:46:11;4.32;;;2.65;;
14766;SDS011;7475;53.558;9.970;2022-09-09T08:51:03;3.65;;;2.55;;
14766;SDS011;7475;53.558;9.970;2022-09-09T08:53:30;4.25;;;2.40;;
14766;SDS011;7475;53.558;9.970;2022-09-09T08:56:00;3.47;;;2.00;;
14766;SDS011;7475;53.558;9.970;2022-09-09T08:58:27;3.95;;;1.80;;
14766;SDS011;7475;53.558;9.970;2022-09-09T09:06:34;3.90;;;1.60;;
14766;SDS011;7475;53.558;9.970;2022-09-09T09:09:08;3.15;;;1.45;;
14766;SDS011;7475;53.558;9.970;2022-09-09T09:11:47;4.53;;;1.98;;
14766;SDS011;7475;53.558;9.970;2022-09-09T09:14:20;4.10;;;1.63;;
14766;SDS011;7475;53.558;9.970;2022-09-09T09:19:14;3.00;;;1.70;;
14766;SDS011;7475;53.558;9.970;2022-09-09T09:21:43;4.15;;;1.45;;
14766;SDS011;7475;53.558;9.970;2022-09-09T09:24:19;3.55;;;1.60;;
14766;SDS011;7475;53.558;9.970;2022-09-09T09:26:45;2.30;;;2.10;;
14766;SDS011;7475;53.558;9.970;2022-09-09T09:29:15;5.15;;;1.60;;
14766;SDS011;7475;53.558;9.970;2022-09-09T09:31:54;6.93;;;4.32;;
14766;SDS011;7475;53.558;9.970;2022-09-09T09:34:20;3.47;;;2.60;;
14766;SDS011;7475;53.558;9.970;2022-09-09T09:37:20;4.03;;;1.85;;
14766;SDS011;7475;53.558;9.970;2022-09-09T09:39:37;8.32;;;3.30;;
14766;SDS011;7475;53.558;9.970;2022-09-09T09:42:11;6.60;;;1.95;;
14766;SDS011;7475;53.558;9.970;2022-09-09T09:44:39;14.10;;;5.57;;
14766;SDS011;7475;53.558;9.970;2022-09-09T09:47:05;3.97;;;2.17;;
14766;SDS011;7475;53.558;9.970;2022-09-09T09:49:31;10.73;;;3.03;;
14766;SDS011;7475;53.558;9.970;2022-09-09T09:52:06;5.35;;;2.10;;
14766;SDS011;7475;53.558;9.970;2022-09-09T09:54:39;5.30;;;1.88;;
14766;SDS011;7475;53.558;9.970;2022-09-09T09:57:13;6.28;;;2.55;;
14766;SDS011;7475;53.558;9.970;2022-09-09T09:59:40;3.15;;;2.00;;
14766;SDS011;7475;53.558;9.970;2022-09-09T10:02:26;4.32;;;1.85;;
14766;SDS011;7475;53.558;9.970;2022-09-09T10:07:46;3.63;;;1.52;;
14766;SDS011;7475;53.558;9.970;2022-09-09T10:10:20;3.72;;;1.73;;
14766;SDS011;7475;53.558;9.970;2022-09-09T10:41:00;7.30;;;1.77;;
14766;SDS011;7475;53.558;9.970;2022-09-09T10:46:04;2.20;;;1.50;;
14766;SDS011;7475;53.558;9.970;2022-09-09T10:48:40;3.08;;;1.40;;
14766;SDS011;7475;53.558;9.970;2022-09-09T10:56:05;4.05;;;1.35;;
14766;SDS011;7475;53.558;9.970;2022-09-09T10:58:44;2.70;;;1.10;;
14766;SDS011;7475;53.558;9.970;2022-09-09T11:01:16;3.50;;;1.35;;
14766;SDS011;7475;53.558;9.970;2022-09-09T11:03:43;2.13;;;1.35;;
14766;SDS011;7475;53.558;9.970;2022-09-09T11:06:14;7.10;;;1.67;;
14766;SDS011;7475;53.558;9.970;2022-09-09T11:08:40;3.95;;;2.75;;
14766;SDS011;7475;53.558;9.970;2022-09-09T11:11:15;6.45;;;2.70;;
14766;SDS011;7475;53.558;9.970;2022-09-09T11:18:46;4.35;;;1.55;;
14766;SDS011;7475;53.558;9.970;2022-09-09T11:21:34;2.03;;;1.55;;
14766;SDS011;7475;53.558;9.970;2022-09-09T11:23:59;4.95;;;1.60;;
14766;SDS011;7475;53.558;9.970;2022-09-09T11:26:30;2.78;;;1.20;;
14766;SDS011;7475;53.558;9.970;2022-09-09T11:29:01;4.45;;;2.20;;
14766;SDS011;7475;53.558;9.970;2022-09-09T11:34:06;3.92;;;2.33;;
14766;SDS011;7475;53.558;9.970;2022-09-09T11:41:51;3.20;;;1.60;;
14766;SDS011;7475;53.558;9.970;2022-09-09T11:44:18;5.43;;;1.80;;
14766;SDS011;7475;53.558;9.970;2022-09-09T11:46:46;2.08;;;1.35;;
14766;SDS011;7475;53.558;9.970;2022-09-09T11:49:25;2.92;;;1.30;;
14766;SDS011;7475;53.558;9.970;2022-09-09T11:51:51;2.67;;;2.10;;
14766;SDS011;7475;53.558;9.970;2022-09-09T11:54:32;3.67;;;1.50;;
14766;SDS011;7475;53.558;9.970;2022-09-09T11:57:00;5.20;;;1.73;;
14766;SDS011;7475;53.558;9.970;2022-09-09T11:59:30;4.25;;;2.45;;
14766;SDS011;7475;53.558;9.970;2022-09-09T12:02:00;3.83;;;1.55;;
14766;SDS011;7475;53.558;9.970;2022-09-09T12:04:30;5.22;;;1.73;;
14766;SDS011;7475;53.558;9.970;2022-09-09T12:12:04;7.22;;;2.30;;
14766;SDS011;7475;53.558;9.970;2022-09-09T12:14:38;2.38;;;1.58;;
14766;SDS011;7475;53.558;9.970;2022-09-09T12:17:17;5.88;;;2.03;;
14766;SDS011;7475;53.558;9.970;2022-09-09T12:19:43;5.07;;;2.65;;
14766;SDS011;7475;53.558;9.970;2022-09-09T12:24:36;3.15;;;1.55;;
14766;SDS011;7475;53.558;9.970;2022-09-09T12:31:57;8.57;;;2.05;;
14766;SDS011;7475;53.558;9.970;2022-09-09T12:36:55;3.15;;;1.40;;
14766;SDS011;7475;53.558;9.970;2022-09-09T12:39:33;3.00;;;1.20;;
14766;SDS011;7475;53.558;9.970;2022-09-09T12:42:00;4.88;;;1.60;;
14766;SDS011;7475;53.558;9.970;2022-09-09T12:44:26;4.22;;;1.42;;
14766;SDS011;7475;53.558;9.970;2022-09-09T12:46:54;3.58;;;1.80;;
14766;SDS011;7475;53.558;9.970;2022-09-09T12:49:37;2.17;;;1.50;;
14766;SDS011;7475;53.558;9.970;2022-09-09T12:52:06;3.80;;;1.77;;
14766;SDS011;7475;53.558;9.970;2022-09-09T12:54:33;4.45;;;1.70;;
14766;SDS011;7475;53.558;9.970;2022-09-09T12:56:59;4.68;;;2.00;;
14766;SDS011;7475;53.558;9.970;2022-09-09T12:59:35;2.90;;;1.80;;
14766;SDS011;7475;53.558;9.970;2022-09-09T13:02:00;4.88;;;2.40;;
14766;SDS011;7475;53.558;9.970;2022-09-09T13:04:26;4.95;;;2.05;;
14766;SDS011;7475;53.558;9.970;2022-09-09T13:06:51;4.30;;;2.20;;
14766;SDS011;7475;53.558;9.970;2022-09-09T13:09:17;3.83;;;2.00;;
14766;SDS011;7475;53.558;9.970;2022-09-09T13:11:43;8.30;;;2.42;;
14766;SDS011;7475;53.558;9.970;2022-09-09T13:14:13;5.47;;;2.20;;
14766;SDS011;7475;53.558;9.970;2022-09-09T13:16:43;4.53;;;2.13;;
14766;SDS011;7475;53.558;9.970;2022-09-09T13:19:14;5.30;;;2.50;;
14766;SDS011;7475;53.558;9.970;2022-09-09T13:21:40;8.30;;;2.38;;
14766;SDS011;7475;53.558;9.970;2022-09-09T13:27:04;11.45;;;2.80;;
14766;SDS011;7475;53.558;9.970;2022-09-09T13:29:30;7.78;;;3.38;;
14766;SDS011;7475;53.558;9.970;2022-09-09T13:32:06;7.82;;;3.35;;
14766;SDS011;7475;53.558;9.970;2022-09-09T13:34:33;9.50;;;2.80;;
14766;SDS011;7475;53.558;9.970;2022-09-09T13:36:59;7.95;;;3.35;;
14766;SDS011;7475;53.558;9.970;2022-09-09T13:39:27;6.47;;;3.40;;
14766;SDS011;7475;53.558;9.970;2022-09-09T13:41:53;9.70;;;4.93;;
14766;SDS011;7475;53.558;9.970;2022-09-09T13:44:23;9.35;;;5.35;;
14766;SDS011;7475;53.558;9.970;2022-09-09T13:47:35;7.72;;;4.32;;
14766;SDS011;7475;53.558;9.970;2022-09-09T13:49:34;9.63;;;5.30;;
14766;SDS011;7475;53.558;9.970;2022-09-09T13:52:09;7.85;;;5.45;;
14766;SDS011;7475;53.558;9.970;2022-09-09T13:54:36;7.50;;;4.47;;
14766;SDS011;7475;53.558;9.970;2022-09-09T13:57:01;9.15;;;6.00;;
14766;SDS011;7475;53.558;9.970;2022-09-09T13:59:27;8.77;;;5.95;;
14766;SDS011;7475;53.558;9.970;2022-09-09T14:01:52;12.35;;;8.85;;
14766;SDS011;7475;53.558;9.970;2022-09-09T14:04:18;11.73;;;7.80;;
14766;SDS011;7475;53.558;9.970;2022-09-09T14:06:46;9.27;;;5.38;;
14766;SDS011;7475;53.558;9.970;2022-09-09T14:09:12;8.95;;;5.45;;
14766;SDS011;7475;53.558;9.970;2022-09-09T14:11:38;12.20;;;6.30;;
14766;SDS011;7475;53.558;9.970;2022-09-09T14:14:03;7.00;;;5.13;;
14766;SDS011;7475;53.558;9.970;2022-09-09T14:16:29;8.63;;;6.35;;
14766;SDS011;7475;53.558;9.970;2022-09-09T14:18:54;33.60;;;29.98;;
14766;SDS011;7475;53.558;9.970;2022-09-09T14:21:24;10.80;;;9.13;;
14766;SDS011;7475;53.558;9.970;2022-09-09T14:23:49;10.95;;;9.85;;
14766;SDS011;7475;53.558;9.970;2022-09-09T14:26:14;8.20;;;6.68;;
14766;SDS011;7475;53.558;9.970;2022-09-09T14:28:40;14.48;;;7.75;;
14766;SDS011;7475;53.558;9.970;2022-09-09T14:31:05;13.70;;;7.28;;
14766;SDS011;7475;53.558;9.970;2022-09-09T14:33:31;12.50;;;7.15;;
14766;SDS011;7475;53.558;9.970;2022-09-09T14:35:57;13.30;;;6.60;;
14766;SDS011;7475;53.558;9.970;2022-09-09T14:38:22;8.07;;;5.80;;
14766;SDS011;7475;53.558;9.970;2022-09-09T14:40:47;10.73;;;8.05;;
14766;SDS011;7475;53.558;9.970;2022-09-09T14:43:12;6.47;;;4.03;;
14766;SDS011;7475;53.558;9.970;2022-09-09T14:45:39;8.93;;;4.63;;
14766;SDS011;7475;53.558;9.970;2022-09-09T14:48:04;3.17;;;2.63;;
14766;SDS011;7475;53.558;9.970;2022-09-09T14:50:29;2.97;;;1.90;;
14766;SDS011;7475;53.558;9.970;2022-09-09T14:52:54;5.32;;;2.60;;
14766;SDS011;7475;53.558;9.970;2022-09-09T14:55:20;5.67;;;2.97;;
14766;SDS011;7475;53.558;9.970;2022-09-09T14:57:46;14.07;;;8.90;;
14766;SDS011;7475;53.558;9.970;2022-09-09T15:00:11;6.65;;;4.35;;
14766;SDS011;7475;53.558;9.970;2022-09-09T15:02:38;4.85;;;2.33;;
14766;SDS011;7475;53.558;9.970;2022-09-09T15:05:03;4.38;;;2.75;;
14766;SDS011;7475;53.558;9.970;2022-09-09T15:07:29;4.50;;;2.38;;
14766;SDS011;7475;53.558;9.970;2022-09-09T15:09:56;4.43;;;2.20;;
14766;SDS011;7475;53.558;9.970;2022-09-09T15:12:22;2.72;;;2.17;;
14766;SDS011;7475;53.558;9.970;2022-09-09T15:14:47;2.92;;;2.28;;
14766;SDS011;7475;53.558;9.970;2022-09-09T15:17:13;4.15;;;2.50;;
14766;SDS011;7475;53.558;9.970;2022-09-09T15:19:38;5.13;;;3.78;;
14766;SDS011;7475;53.558;9.970;2022-09-09T15:22:04;6.25;;;4.40;;
14766;SDS011;7475;53.558;9.970;2022-09-09T15:24:30;5.40;;;2.90;;
14766;SDS011;7475;53.558;9.970;2022-09-09T15:26:56;3.65;;;2.47;;
14766;SDS011;7475;53.558;9.970;2022-09-09T15:29:22;3.53;;;2.45;;
14766;SDS011;7475;53.558;9.970;2022-09-09T15:31:47;5.30;;;2.90;;
14766;SDS011;7475;53.558;9.970;2022-09-09T15:34:12;4.32;;;3.33;;
14766;SDS011;7475;53.558;9.970;2022-09-09T15:36:39;4.18;;;2.00;;
14766;SDS011;7475;53.558;9.970;2022-09-09T15:39:06;5.32;;;3.63;;
14766;SDS011;7475;53.558;9.970;2022-09-09T15:41:32;7.47;;;3.78;;
14766;SDS011;7475;53.558;9.970;2022-09-09T15:43:57;8.00;;;4.70;;
14766;SDS011;7475;53.558;9.970;2022-09-09T15:48:56;5.97;;;2.70;;
14766;SDS011;7475;53.558;9.970;2022-09-09T15:51:21;3.45;;;2.28;;
14766;SDS011;7475;53.558;9.970;2022-09-09T15:53:47;5.07;;;3.10;;
14766;SDS011;7475;53.558;9.970;2022-09-09T15:56:13;3.83;;;2.47;;
14766;SDS011;7475;53.558;9.970;2022-09-09T15:58:38;5.35;;;3.53;;
14766;SDS011;7475;53.558;9.970;2022-09-09T16:01:04;5.65;;;3.15;;
14766;SDS011;7475;53.558;9.970;2022-09-09T16:03:33;5.78;;;2.70;;
14766;SDS011;7475;53.558;9.970;2022-09-09T16:05:58;4.80;;;2.83;;
14766;SDS011;7475;53.558;9.970;2022-09-09T16:08:23;4.53;;;2.03;;
14766;SDS011;7475;53.558;9.970;2022-09-09T16:10:49;3.85;;;2.22;;
14766;SDS011;7475;53.558;9.970;2022-09-09T16:13:14;3.00;;;1.83;;
14766;SDS011;7475;53.558;9.970;2022-09-09T16:15:39;4.40;;;2.07;;
14766;SDS011;7475;53.558;9.970;2022-09-09T16:18:04;2.67;;;1.60;;
14766;SDS011;7475;53.558;9.970;2022-09-09T16:20:29;3.45;;;1.92;;
14766;SDS011;7475;53.558;9.970;2022-09-09T16:22:55;3.75;;;2.15;;
14766;SDS011;7475;53.558;9.970;2022-09-09T16:25:22;2.30;;;1.60;;
14766;SDS011;7475;53.558;9.970;2022-09-09T16:27:47;3.45;;;1.63;;
14766;SDS011;7475;53.558;9.970;2022-09-09T16:30:12;2.93;;;1.50;;
14766;SDS011;7475;53.558;9.970;2022-09-09T16:32:38;2.38;;;1.60;;
14766;SDS011;7475;53.558;9.970;2022-09-09T16:35:03;3.63;;;2.20;;
14766;SDS011;7475;53.558;9.970;2022-09-09T16:37:29;4.35;;;2.15;;
14766;SDS011;7475;53.558;9.970;2022-09-09T16:39:54;4.78;;;3.53;;
14766;SDS011;7475;53.558;9.970;2022-09-09T16:42:19;5.28;;;3.67;;
14766;SDS011;7475;53.558;9.970;2022-09-09T16:44:44;10.47;;;6.63;;
14766;SDS011;7475;53.558;9.970;2022-09-09T16:47:10;3.57;;;2.20;;
14766;SDS011;7475;53.558;9.970;2022-09-09T16:49:35;7.35;;;3.22;;
14766;SDS011;7475;53.558;9.970;2022-09-09T16:52:01;6.70;;;5.03;;
14766;SDS011;7475;53.558;9.970;2022-09-09T16:54:26;7.30;;;4.40;;
14766;SDS011;7475;53.558;9.970;2022-09-09T16:56:52;5.72;;;4.43;;